sensor_id;sensor_type;location;lat;lon;timestamp;temperature;humidity
18126;DHT22;53956;52.442;13.284;2022-09-14T00:01:25;19.00;98.70
18126;DHT22;53956;52.442;13.284;2022-09-14T00:03:53;19.00;99.00
18126;DHT22;53956;52.442;13.284;2022-09-14T00:06:20;19.00;98.40
18126;DHT22;53956;52.442;13.284;2022-09-14T00:08:49;18.90;98.20
18126;DHT22;53956;52.442;13.284;2022-09-14T00:11:17;18.90;98.70
18126;DHT22;53956;52.442;13.284;2022-09-14T00:13:45;18.90;98.90
18126;DHT22;53956;52.442;13.284;2022-09-14T00:16:16;18.90;99.20
18126;DHT22;53956;52.442;13.284;2022-09-14T00:18:48;18.90;98.60
18126;DHT22;53956;52.442;13.284;2022-09-14T00:21:15;18.70;98.40
18126;DHT22;53956;52.442;13.284;2022-09-14T00:23:41;18.80;98.80
18126;DHT22;53956;52.442;13.284;2022-09-14T00:26:12;18.80;98.50
18126;DHT22;53956;52.442;13.284;2022-09-14T00:28:39;18.70;98.40
18126;DHT22;53956;52.442;13.284;2022-09-14T00:31:07;18.70;98.30
18126;DHT22;53956;52.442;13.284;2022-09-14T00:33:34;18.70;98.10
18126;DHT22;53956;52.442;13.284;2022-09-14T00:36:05;18.60;98.40
18126;DHT22;53956;52.442;13.284;2022-09-14T00:38:33;18.60;98.10
18126;DHT22;53956;52.442;13.284;2022-09-14T00:41:02;18.60;98.30
18126;DHT22;53956;52.442;13.284;2022-09-14T00:43:29;18.50;97.90
18126;DHT22;53956;52.442;13.284;2022-09-14T00:45:55;18.60;98.60
18126;DHT22;53956;52.442;13.284;2022-09-14T00:48:23;18.60;98.50
18126;DHT22;53956;52.442;13.284;2022-09-14T00:50:51;18.50;98.00
18126;DHT22;53956;52.442;13.284;2022-09-14T00:53:20;18.50;98.10
18126;DHT22;53956;52.442;13.284;2022-09-14T00:55:47;18.60;98.30
18126;DHT22;53956;52.442;13.284;2022-09-14T00:58:15;18.60;98.30
18126;DHT22;53956;52.442;13.284;2022-09-14T01:00:42;18.50;98.50
18126;DHT22;53956;52.442;13.284;2022-09-14T01:03:08;18.50;98.10
18126;DHT22;53956;52.442;13.284;2022-09-14T01:05:48;18.50;98.50
18126;DHT22;53956;52.442;13.284;2022-09-14T01:08:28;18.50;98.50
18126;DHT22;53956;52.442;13.284;2022-09-14T01:11:13;18.50;98.00
18126;DHT22;53956;52.442;13.284;2022-09-14T01:13:50;18.60;97.70
18126;DHT22;53956;52.442;13.284;2022-09-14T01:16:29;18.50;97.70
18126;DHT22;53956;52.442;13.284;2022-09-14T01:18:59;18.50;98.00
18126;DHT22;53956;52.442;13.284;2022-09-14T01:21:29;18.40;97.80
18126;DHT22;53956;52.442;13.284;2022-09-14T01:24:01;18.50;97.60
18126;DHT22;53956;52.442;13.284;2022-09-14T01:27:10;18.60;97.50
18126;DHT22;53956;52.442;13.284;2022-09-14T01:29:40;18.50;97.40
18126;DHT22;53956;52.442;13.284;2022-09-14T01:32:12;18.50;97.30
18126;DHT22;53956;52.442;13.284;2022-09-14T01:34:45;18.50;97.10
18126;DHT22;53956;52.442;13.284;2022-09-14T01:37:17;18.40;96.80
18126;DHT22;53956;52.442;13.284;2022-09-14T01:39:48;18.40;96.80
18126;DHT22;53956;52.442;13.284;2022-09-14T01:42:17;18.30;96.90
18126;DHT22;53956;52.442;13.284;2022-09-14T01:44:48;18.30;96.70
18126;DHT22;53956;52.442;13.284;2022-09-14T01:47:20;18.40;96.80
18126;DHT22;53956;52.442;13.284;2022-09-14T01:49:54;18.40;97.00
18126;DHT22;53956;52.442;13.284;2022-09-14T01:52:25;18.40;96.70
18126;DHT22;53956;52.442;13.284;2022-09-14T01:54:56;18.30;96.90
18126;DHT22;53956;52.442;13.284;2022-09-14T01:57:31;18.40;97.30
18126;DHT22;53956;52.442;13.284;2022-09-14T02:00:03;18.40;97.20
18126;DHT22;53956;52.442;13.284;2022-09-14T02:02:34;18.30;97.10
18126;DHT22;53956;52.442;13.284;2022-09-14T02:05:05;18.30;97.50
18126;DHT22;53956;52.442;13.284;2022-09-14T02:07:33;18.30;97.20
18126;DHT22;53956;52.442;13.284;2022-09-14T02:10:01;18.30;97.10
18126;DHT22;53956;52.442;13.284;2022-09-14T02:12:30;18.20;97.60
18126;DHT22;53956;52.442;13.284;2022-09-14T02:14:57;18.20;97.50
18126;DHT22;53956;52.442;13.284;2022-09-14T02:17:23;18.20;97.40
18126;DHT22;53956;52.442;13.284;2022-09-14T02:19:54;18.20;97.40
18126;DHT22;53956;52.442;13.284;2022-09-14T02:22:21;18.20;97.70
18126;DHT22;53956;52.442;13.284;2022-09-14T02:24:48;18.20;97.70
18126;DHT22;53956;52.442;13.284;2022-09-14T02:27:15;18.20;97.80
18126;DHT22;53956;52.442;13.284;2022-09-14T02:29:43;18.10;98.70
18126;DHT22;53956;52.442;13.284;2022-09-14T02:32:17;18.10;99.00
18126;DHT22;53956;52.442;13.284;2022-09-14T02:34:52;18.10;98.60
18126;DHT22;53956;52.442;13.284;2022-09-14T02:37:25;18.10;98.60
18126;DHT22;53956;52.442;13.284;2022-09-14T02:40:00;18.20;97.50
18126;DHT22;53956;52.442;13.284;2022-09-14T02:42:35;18.10;99.00
18126;DHT22;53956;52.442;13.284;2022-09-14T02:45:12;18.10;98.60
18126;DHT22;53956;52.442;13.284;2022-09-14T02:47:48;18.10;98.50
18126;DHT22;53956;52.442;13.284;2022-09-14T02:50:23;18.10;98.90
18126;DHT22;53956;52.442;13.284;2022-09-14T02:52:55;18.10;99.10
18126;DHT22;53956;52.442;13.284;2022-09-14T02:55:27;18.10;98.90
18126;DHT22;53956;52.442;13.284;2022-09-14T02:58:03;18.00;98.90
18126;DHT22;53956;52.442;13.284;2022-09-14T03:00:34;18.10;98.60
18126;DHT22;53956;52.442;13.284;2022-09-14T03:03:01;18.00;98.80
18126;DHT22;53956;52.442;13.284;2022-09-14T03:05:28;18.00;98.70
18126;DHT22;53956;52.442;13.284;2022-09-14T03:07:56;18.00;98.90
18126;DHT22;53956;52.442;13.284;2022-09-14T03:10:22;18.00;98.80
18126;DHT22;53956;52.442;13.284;2022-09-14T03:12:49;17.90;98.60
18126;DHT22;53956;52.442;13.284;2022-09-14T03:15:15;17.90;98.50
18126;DHT22;53956;52.442;13.284;2022-09-14T03:17:47;17.90;98.60
18126;DHT22;53956;52.442;13.284;2022-09-14T03:20:14;17.80;98.50
18126;DHT22;53956;52.442;13.284;2022-09-14T03:22:41;17.90;98.50
18126;DHT22;53956;52.442;13.284;2022-09-14T03:25:08;18.00;98.80
18126;DHT22;53956;52.442;13.284;2022-09-14T03:27:35;17.90;98.90
18126;DHT22;53956;52.442;13.284;2022-09-14T03:30:02;17.80;98.70
18126;DHT22;53956;52.442;13.284;2022-09-14T03:32:29;17.80;98.50
18126;DHT22;53956;52.442;13.284;2022-09-14T03:34:57;17.80;98.70
18126;DHT22;53956;52.442;13.284;2022-09-14T03:37:24;17.80;98.50
18126;DHT22;53956;52.442;13.284;2022-09-14T03:39:51;17.90;98.80
18126;DHT22;53956;52.442;13.284;2022-09-14T03:42:18;17.80;99.10
18126;DHT22;53956;52.442;13.284;2022-09-14T03:44:45;17.80;99.20
18126;DHT22;53956;52.442;13.284;2022-09-14T03:47:12;17.90;98.30
18126;DHT22;53956;52.442;13.284;2022-09-14T03:49:38;17.70;98.50
18126;DHT22;53956;52.442;13.284;2022-09-14T03:52:06;17.70;98.50
18126;DHT22;53956;52.442;13.284;2022-09-14T03:54:33;17.80;98.50
18126;DHT22;53956;52.442;13.284;2022-09-14T03:57:00;17.90;98.20
18126;DHT22;53956;52.442;13.284;2022-09-14T03:59:26;17.80;98.60
18126;DHT22;53956;52.442;13.284;2022-09-14T04:01:53;17.70;98.60
18126;DHT22;53956;52.442;13.284;2022-09-14T04:04:20;17.80;98.20
18126;DHT22;53956;52.442;13.284;2022-09-14T04:06:46;17.70;98.10
18126;DHT22;53956;52.442;13.284;2022-09-14T04:09:14;17.70;98.40
18126;DHT22;53956;52.442;13.284;2022-09-14T04:11:43;17.70;98.50
18126;DHT22;53956;52.442;13.284;2022-09-14T04:14:10;17.60;98.60
18126;DHT22;53956;52.442;13.284;2022-09-14T04:16:37;17.80;98.40
18126;DHT22;53956;52.442;13.284;2022-09-14T04:19:04;17.60;98.70
18126;DHT22;53956;52.442;13.284;2022-09-14T04:21:31;17.60;98.40
18126;DHT22;53956;52.442;13.284;2022-09-14T04:23:58;17.60;98.20
18126;DHT22;53956;52.442;13.284;2022-09-14T04:26:27;17.70;98.50
18126;DHT22;53956;52.442;13.284;2022-09-14T04:28:55;17.50;98.50
18126;DHT22;53956;52.442;13.284;2022-09-14T04:31:22;17.70;98.70
18126;DHT22;53956;52.442;13.284;2022-09-14T04:33:49;17.60;98.60
18126;DHT22;53956;52.442;13.284;2022-09-14T04:36:17;17.60;98.70
18126;DHT22;53956;52.442;13.284;2022-09-14T04:38:45;17.60;98.40
18126;DHT22;53956;52.442;13.284;2022-09-14T04:41:14;17.50;98.10
18126;DHT22;53956;52.442;13.284;2022-09-14T04:43:43;17.60;98.40
18126;DHT22;53956;52.442;13.284;2022-09-14T04:46:12;17.60;98.10
18126;DHT22;53956;52.442;13.284;2022-09-14T04:48:39;17.50;97.90
18126;DHT22;53956;52.442;13.284;2022-09-14T04:51:07;17.70;98.30
18126;DHT22;53956;52.442;13.284;2022-09-14T04:53:36;17.60;98.60
18126;DHT22;53956;52.442;13.284;2022-09-14T04:56:04;17.60;98.40
18126;DHT22;53956;52.442;13.284;2022-09-14T04:58:32;17.50;98.30
18126;DHT22;53956;52.442;13.284;2022-09-14T05:01:02;17.50;98.70
18126;DHT22;53956;52.442;13.284;2022-09-14T05:03:28;17.60;98.30
18126;DHT22;53956;52.442;13.284;2022-09-14T05:05:59;17.60;98.30
18126;DHT22;53956;52.442;13.284;2022-09-14T05:08:26;17.60;98.30
18126;DHT22;53956;52.442;13.284;2022-09-14T05:10:53;17.60;98.20
18126;DHT22;53956;52.442;13.284;2022-09-14T05:13:20;17.60;98.20
18126;DHT22;53956;52.442;13.284;2022-09-14T05:15:47;17.50;98.30
18126;DHT22;53956;52.442;13.284;2022-09-14T05:18:16;17.50;98.10
18126;DHT22;53956;52.442;13.284;2022-09-14T05:20:43;17.50;98.30
18126;DHT22;53956;52.442;13.284;2022-09-14T05:23:09;17.60;98.70
18126;DHT22;53956;52.442;13.284;2022-09-14T05:25:36;17.60;98.60
18126;DHT22;53956;52.442;13.284;2022-09-14T05:28:03;17.60;98.10
18126;DHT22;53956;52.442;13.284;2022-09-14T05:30:30;17.60;98.10
18126;DHT22;53956;52.442;13.284;2022-09-14T05:32:56;17.50;98.40
18126;DHT22;53956;52.442;13.284;2022-09-14T05:35:24;17.60;98.10
18126;DHT22;53956;52.442;13.284;2022-09-14T05:37:51;17.70;98.00
18126;DHT22;53956;52.442;13.284;2022-09-14T05:40:17;17.70;98.10
18126;DHT22;53956;52.442;13.284;2022-09-14T05:42:44;17.70;98.20
18126;DHT22;53956;52.442;13.284;2022-09-14T05:45:11;17.80;98.20
18126;DHT22;53956;52.442;13.284;2022-09-14T05:47:37;17.80;98.50
18126;DHT22;53956;52.442;13.284;2022-09-14T05:50:05;17.90;98.00
18126;DHT22;53956;52.442;13.284;2022-09-14T05:52:34;17.90;98.20
18126;DHT22;53956;52.442;13.284;2022-09-14T05:55:00;17.90;98.00
18126;DHT22;53956;52.442;13.284;2022-09-14T05:57:27;17.80;98.20
18126;DHT22;53956;52.442;13.284;2022-09-14T05:59:54;17.80;97.80
18126;DHT22;53956;52.442;13.284;2022-09-14T06:02:20;18.00;97.90
18126;DHT22;53956;52.442;13.284;2022-09-14T06:04:47;18.00;98.30
18126;DHT22;53956;52.442;13.284;2022-09-14T06:07:14;18.10;98.40
18126;DHT22;53956;52.442;13.284;2022-09-14T06:09:42;18.10;98.20
18126;DHT22;53956;52.442;13.284;2022-09-14T06:12:09;18.10;98.50
18126;DHT22;53956;52.442;13.284;2022-09-14T06:14:35;18.20;96.90
18126;DHT22;53956;52.442;13.284;2022-09-14T06:17:02;18.30;96.90
18126;DHT22;53956;52.442;13.284;2022-09-14T06:19:30;18.30;96.70
18126;DHT22;53956;52.442;13.284;2022-09-14T06:21:56;18.40;96.80
18126;DHT22;53956;52.442;13.284;2022-09-14T06:24:23;18.60;96.10
18126;DHT22;53956;52.442;13.284;2022-09-14T06:26:51;18.70;95.80
18126;DHT22;53956;52.442;13.284;2022-09-14T06:29:17;18.70;95.00
18126;DHT22;53956;52.442;13.284;2022-09-14T06:31:44;18.70;95.20
18126;DHT22;53956;52.442;13.284;2022-09-14T06:34:11;18.80;95.60
18126;DHT22;53956;52.442;13.284;2022-09-14T06:36:37;18.90;95.80
18126;DHT22;53956;52.442;13.284;2022-09-14T06:39:04;18.90;94.90
18126;DHT22;53956;52.442;13.284;2022-09-14T06:41:31;19.00;95.20
18126;DHT22;53956;52.442;13.284;2022-09-14T06:44:00;19.10;94.70
18126;DHT22;53956;52.442;13.284;2022-09-14T06:46:28;19.50;93.70
18126;DHT22;53956;52.442;13.284;2022-09-14T06:48:57;20.00;92.10
18126;DHT22;53956;52.442;13.284;2022-09-14T06:51:26;20.50;89.90
18126;DHT22;53956;52.442;13.284;2022-09-14T06:53:55;20.90;87.80
18126;DHT22;53956;52.442;13.284;2022-09-14T06:56:24;21.00;87.30
18126;DHT22;53956;52.442;13.284;2022-09-14T06:58:51;20.80;88.80
18126;DHT22;53956;52.442;13.284;2022-09-14T07:01:20;20.50;89.60
18126;DHT22;53956;52.442;13.284;2022-09-14T07:03:47;20.20;90.30
18126;DHT22;53956;52.442;13.284;2022-09-14T07:06:17;19.90;91.10
18126;DHT22;53956;52.442;13.284;2022-09-14T07:08:46;19.80;91.50
18126;DHT22;53956;52.442;13.284;2022-09-14T07:11:14;19.50;92.50
18126;DHT22;53956;52.442;13.284;2022-09-14T07:13:42;19.70;92.70
18126;DHT22;53956;52.442;13.284;2022-09-14T07:16:09;19.50;93.60
18126;DHT22;53956;52.442;13.284;2022-09-14T07:18:37;19.50;93.20
18126;DHT22;53956;52.442;13.284;2022-09-14T07:21:05;19.40;93.50
18126;DHT22;53956;52.442;13.284;2022-09-14T07:23:34;19.40;94.20
18126;DHT22;53956;52.442;13.284;2022-09-14T07:26:03;19.30;94.50
18126;DHT22;53956;52.442;13.284;2022-09-14T07:28:31;19.30;94.40
18126;DHT22;53956;52.442;13.284;2022-09-14T07:30:59;19.30;95.10
18126;DHT22;53956;52.442;13.284;2022-09-14T07:33:26;19.40;94.60
18126;DHT22;53956;52.442;13.284;2022-09-14T07:36:00;19.90;93.60
18126;DHT22;53956;52.442;13.284;2022-09-14T07:38:29;20.00;92.30
18126;DHT22;53956;52.442;13.284;2022-09-14T07:40:56;20.10;92.10
18126;DHT22;53956;52.442;13.284;2022-09-14T07:43:23;19.90;92.40
18126;DHT22;53956;52.442;13.284;2022-09-14T07:45:50;20.20;92.50
18126;DHT22;53956;52.442;13.284;2022-09-14T07:48:16;20.80;90.70
18126;DHT22;53956;52.442;13.284;2022-09-14T07:50:43;21.70;87.20
18126;DHT22;53956;52.442;13.284;2022-09-14T07:53:11;22.30;85.60
18126;DHT22;53956;52.442;13.284;2022-09-14T07:55:38;22.60;83.80
18126;DHT22;53956;52.442;13.284;2022-09-14T07:58:05;22.50;83.10
18126;DHT22;53956;52.442;13.284;2022-09-14T08:00:32;22.60;82.70
18126;DHT22;53956;52.442;13.284;2022-09-14T08:02:59;22.60;82.70
18126;DHT22;53956;52.442;13.284;2022-09-14T08:05:26;22.70;82.20
18126;DHT22;53956;52.442;13.284;2022-09-14T08:07:53;22.30;83.20
18126;DHT22;53956;52.442;13.284;2022-09-14T08:10:22;22.10;83.70
18126;DHT22;53956;52.442;13.284;2022-09-14T08:12:50;22.00;84.30
18126;DHT22;53956;52.442;13.284;2022-09-14T08:15:16;22.00;84.00
18126;DHT22;53956;52.442;13.284;2022-09-14T08:17:43;22.40;83.10
18126;DHT22;53956;52.442;13.284;2022-09-14T08:20:09;22.70;81.50
18126;DHT22;53956;52.442;13.284;2022-09-14T08:22:36;23.10;80.70
18126;DHT22;53956;52.442;13.284;2022-09-14T08:25:04;23.40;80.30
18126;DHT22;53956;52.442;13.284;2022-09-14T08:27:32;23.90;78.20
18126;DHT22;53956;52.442;13.284;2022-09-14T08:29:59;24.00;77.00
18126;DHT22;53956;52.442;13.284;2022-09-14T08:32:25;24.20;75.70
18126;DHT22;53956;52.442;13.284;2022-09-14T08:34:52;24.00;75.80
18126;DHT22;53956;52.442;13.284;2022-09-14T08:37:18;23.90;76.00
18126;DHT22;53956;52.442;13.284;2022-09-14T08:39:45;23.90;76.40
18126;DHT22;53956;52.442;13.284;2022-09-14T08:42:14;24.10;75.60
18126;DHT22;53956;52.442;13.284;2022-09-14T08:44:48;24.30;75.20
18126;DHT22;53956;52.442;13.284;2022-09-14T08:47:17;24.50;75.00
18126;DHT22;53956;52.442;13.284;2022-09-14T08:49:50;24.40;73.20
18126;DHT22;53956;52.442;13.284;2022-09-14T08:52:23;24.60;72.00
18126;DHT22;53956;52.442;13.284;2022-09-14T08:54:53;24.40;71.90
18126;DHT22;53956;52.442;13.284;2022-09-14T08:57:26;24.10;73.20
18126;DHT22;53956;52.442;13.284;2022-09-14T09:00:03;24.00;73.20
18126;DHT22;53956;52.442;13.284;2022-09-14T09:02:42;24.10;71.90
18126;DHT22;53956;52.442;13.284;2022-09-14T09:05:24;24.20;71.70
18126;DHT22;53956;52.442;13.284;2022-09-14T09:07:57;24.00;70.70
18126;DHT22;53956;52.442;13.284;2022-09-14T09:10:26;23.60;72.70
18126;DHT22;53956;52.442;13.284;2022-09-14T09:12:55;23.00;75.30
18126;DHT22;53956;52.442;13.284;2022-09-14T09:15:26;22.70;75.30
18126;DHT22;53956;52.442;13.284;2022-09-14T09:17:58;22.60;76.20
18126;DHT22;53956;52.442;13.284;2022-09-14T09:20:27;22.50;77.00
18126;DHT22;53956;52.442;13.284;2022-09-14T09:23:07;22.40;77.00
18126;DHT22;53956;52.442;13.284;2022-09-14T09:25:45;22.20;77.20
18126;DHT22;53956;52.442;13.284;2022-09-14T09:28:14;22.00;77.20
18126;DHT22;53956;52.442;13.284;2022-09-14T09:30:43;22.00;77.60
18126;DHT22;53956;52.442;13.284;2022-09-14T09:33:14;21.90;77.20
18126;DHT22;53956;52.442;13.284;2022-09-14T09:36:05;22.00;77.20
18126;DHT22;53956;52.442;13.284;2022-09-14T09:38:34;21.90;76.20
18126;DHT22;53956;52.442;13.284;2022-09-14T09:41:09;21.90;77.50
18126;DHT22;53956;52.442;13.284;2022-09-14T09:43:56;21.70;77.60
18126;DHT22;53956;52.442;13.284;2022-09-14T09:46:24;22.00;78.10
18126;DHT22;53956;52.442;13.284;2022-09-14T09:48:51;21.90;77.80
18126;DHT22;53956;52.442;13.284;2022-09-14T09:51:26;21.80;77.60
18126;DHT22;53956;52.442;13.284;2022-09-14T09:53:56;21.80;77.60
18126;DHT22;53956;52.442;13.284;2022-09-14T09:56:26;21.60;76.30
18126;DHT22;53956;52.442;13.284;2022-09-14T09:58:53;21.50;76.50
18126;DHT22;53956;52.442;13.284;2022-09-14T10:01:25;21.60;75.80
18126;DHT22;53956;52.442;13.284;2022-09-14T10:04:16;21.50;75.80
18126;DHT22;53956;52.442;13.284;2022-09-14T10:06:45;21.40;75.20
18126;DHT22;53956;52.442;13.284;2022-09-14T10:09:13;21.60;76.10
18126;DHT22;53956;52.442;13.284;2022-09-14T10:11:41;21.50;75.60
18126;DHT22;53956;52.442;13.284;2022-09-14T10:14:21;21.50;76.60
18126;DHT22;53956;52.442;13.284;2022-09-14T10:16:49;21.50;76.90
18126;DHT22;53956;52.442;13.284;2022-09-14T10:19:21;21.40;77.00
18126;DHT22;53956;52.442;13.284;2022-09-14T10:22:04;21.40;77.80
18126;DHT22;53956;52.442;13.284;2022-09-14T10:24:32;21.60;77.60
18126;DHT22;53956;52.442;13.284;2022-09-14T10:27:00;21.60;76.60
18126;DHT22;53956;52.442;13.284;2022-09-14T10:29:37;21.60;74.70
18126;DHT22;53956;52.442;13.284;2022-09-14T10:32:15;21.60;75.90
18126;DHT22;53956;52.442;13.284;2022-09-14T10:34:44;21.60;76.70
18126;DHT22;53956;52.442;13.284;2022-09-14T10:37:26;21.60;76.40
18126;DHT22;53956;52.442;13.284;2022-09-14T10:40:10;21.70;76.40
18126;DHT22;53956;52.442;13.284;2022-09-14T10:42:46;21.80;76.50
18126;DHT22;53956;52.442;13.284;2022-09-14T10:45:22;21.70;76.80
18126;DHT22;53956;52.442;13.284;2022-09-14T10:51:21;21.70;77.20
18126;DHT22;53956;52.442;13.284;2022-09-14T10:53:56;21.70;76.40
18126;DHT22;53956;52.442;13.284;2022-09-14T10:56:27;21.80;75.70
18126;DHT22;53956;52.442;13.284;2022-09-14T10:59:18;21.90;75.30
18126;DHT22;53956;52.442;13.284;2022-09-14T11:02:22;21.90;75.90
18126;DHT22;53956;52.442;13.284;2022-09-14T11:05:12;21.80;75.00
18126;DHT22;53956;52.442;13.284;2022-09-14T11:07:51;22.00;75.10
18126;DHT22;53956;52.442;13.284;2022-09-14T11:10:27;22.00;74.50
18126;DHT22;53956;52.442;13.284;2022-09-14T11:13:21;22.10;74.30
18126;DHT22;53956;52.442;13.284;2022-09-14T11:15:55;22.10;74.10
18126;DHT22;53956;52.442;13.284;2022-09-14T11:18:29;22.00;74.60
18126;DHT22;53956;52.442;13.284;2022-09-14T11:21:04;22.10;75.10
18126;DHT22;53956;52.442;13.284;2022-09-14T11:23:42;22.00;75.00
18126;DHT22;53956;52.442;13.284;2022-09-14T11:26:13;21.90;73.90
18126;DHT22;53956;52.442;13.284;2022-09-14T11:28:45;21.80;74.40
18126;DHT22;53956;52.442;13.284;2022-09-14T11:31:19;21.80;73.60
18126;DHT22;53956;52.442;13.284;2022-09-14T11:33:51;21.70;73.60
18126;DHT22;53956;52.442;13.284;2022-09-14T11:36:21;21.90;72.70
18126;DHT22;53956;52.442;13.284;2022-09-14T11:38:53;22.00;72.30
18126;DHT22;53956;52.442;13.284;2022-09-14T11:41:25;22.00;73.30
18126;DHT22;53956;52.442;13.284;2022-09-14T11:43:57;22.00;74.30
18126;DHT22;53956;52.442;13.284;2022-09-14T11:46:26;22.00;73.80
18126;DHT22;53956;52.442;13.284;2022-09-14T11:49:05;22.10;72.40
18126;DHT22;53956;52.442;13.284;2022-09-14T11:51:38;22.00;72.40
18126;DHT22;53956;52.442;13.284;2022-09-14T11:54:12;22.00;73.10
18126;DHT22;53956;52.442;13.284;2022-09-14T11:56:41;22.00;73.00
18126;DHT22;53956;52.442;13.284;2022-09-14T11:59:32;22.10;71.50
18126;DHT22;53956;52.442;13.284;2022-09-14T12:05:33;22.00;72.00
18126;DHT22;53956;52.442;13.284;2022-09-14T12:08:03;21.70;72.30
18126;DHT22;53956;52.442;13.284;2022-09-14T12:10:57;21.70;72.30
18126;DHT22;53956;52.442;13.284;2022-09-14T12:13:24;21.80;73.20
18126;DHT22;53956;52.442;13.284;2022-09-14T12:16:00;21.70;73.20
18126;DHT22;53956;52.442;13.284;2022-09-14T12:18:29;21.80;73.10
18126;DHT22;53956;52.442;13.284;2022-09-14T12:21:04;21.80;73.20
18126;DHT22;53956;52.442;13.284;2022-09-14T12:23:42;21.80;73.20
18126;DHT22;53956;52.442;13.284;2022-09-14T12:26:29;21.80;73.20
18126;DHT22;53956;52.442;13.284;2022-09-14T12:29:02;21.70;74.60
18126;DHT22;53956;52.442;13.284;2022-09-14T12:31:59;21.80;74.20
18126;DHT22;53956;52.442;13.284;2022-09-14T12:34:27;21.60;74.00
18126;DHT22;53956;52.442;13.284;2022-09-14T12:37:26;21.70;74.90
18126;DHT22;53956;52.442;13.284;2022-09-14T12:42:55;21.70;75.80
18126;DHT22;53956;52.442;13.284;2022-09-14T12:45:47;21.90;75.60
18126;DHT22;53956;52.442;13.284;2022-09-14T12:48:52;21.90;76.20
18126;DHT22;53956;52.442;13.284;2022-09-14T12:51:29;22.00;74.60
18126;DHT22;53956;52.442;13.284;2022-09-14T12:54:01;21.90;75.20
18126;DHT22;53956;52.442;13.284;2022-09-14T12:56:33;22.00;75.60
18126;DHT22;53956;52.442;13.284;2022-09-14T12:59:09;21.90;75.30
18126;DHT22;53956;52.442;13.284;2022-09-14T13:01:44;21.90;74.40
18126;DHT22;53956;52.442;13.284;2022-09-14T13:04:17;21.90;75.10
18126;DHT22;53956;52.442;13.284;2022-09-14T13:06:46;21.80;75.80
18126;DHT22;53956;52.442;13.284;2022-09-14T13:09:18;21.90;75.80
18126;DHT22;53956;52.442;13.284;2022-09-14T13:11:47;21.80;75.80
18126;DHT22;53956;52.442;13.284;2022-09-14T13:14:17;21.90;75.80
18126;DHT22;53956;52.442;13.284;2022-09-14T13:16:46;21.90;75.60
18126;DHT22;53956;52.442;13.284;2022-09-14T13:19:22;21.80;76.20
18126;DHT22;53956;52.442;13.284;2022-09-14T13:21:51;21.70;76.00
18126;DHT22;53956;52.442;13.284;2022-09-14T13:24:26;21.70;76.70
18126;DHT22;53956;52.442;13.284;2022-09-14T13:26:55;21.70;76.10
18126;DHT22;53956;52.442;13.284;2022-09-14T13:29:24;21.60;76.10
18126;DHT22;53956;52.442;13.284;2022-09-14T13:31:52;21.70;76.40
18126;DHT22;53956;52.442;13.284;2022-09-14T13:34:21;21.70;76.00
18126;DHT22;53956;52.442;13.284;2022-09-14T13:36:48;21.60;76.00
18126;DHT22;53956;52.442;13.284;2022-09-14T13:39:24;21.60;76.40
18126;DHT22;53956;52.442;13.284;2022-09-14T13:41:52;21.60;76.20
18126;DHT22;53956;52.442;13.284;2022-09-14T13:44:25;21.50;75.90
18126;DHT22;53956;52.442;13.284;2022-09-14T13:47:00;21.50;75.90
18126;DHT22;53956;52.442;13.284;2022-09-14T13:49:27;21.50;76.40
18126;DHT22;53956;52.442;13.284;2022-09-14T13:52:16;21.40;76.50
18126;DHT22;53956;52.442;13.284;2022-09-14T13:54:43;21.40;77.20
18126;DHT22;53956;52.442;13.284;2022-09-14T13:57:13;21.40;76.80
18126;DHT22;53956;52.442;13.284;2022-09-14T14:00:18;21.50;77.30
18126;DHT22;53956;52.442;13.284;2022-09-14T14:02:47;21.50;76.80
18126;DHT22;53956;52.442;13.284;2022-09-14T14:05:22;21.50;77.10
18126;DHT22;53956;52.442;13.284;2022-09-14T14:07:49;21.50;77.20
18126;DHT22;53956;52.442;13.284;2022-09-14T14:10:25;21.60;77.20
18126;DHT22;53956;52.442;13.284;2022-09-14T14:12:52;21.50;77.30
18126;DHT22;53956;52.442;13.284;2022-09-14T14:15:37;21.50;76.40
18126;DHT22;53956;52.442;13.284;2022-09-14T14:18:36;21.50;77.40
18126;DHT22;53956;52.442;13.284;2022-09-14T14:21:11;21.50;77.30
18126;DHT22;53956;52.442;13.284;2022-09-14T14:23:38;21.40;78.00
18126;DHT22;53956;52.442;13.284;2022-09-14T14:26:08;21.50;78.40
18126;DHT22;53956;52.442;13.284;2022-09-14T14:28:35;21.60;78.50
18126;DHT22;53956;52.442;13.284;2022-09-14T14:31:03;21.50;78.50
18126;DHT22;53956;52.442;13.284;2022-09-14T14:33:33;21.50;78.40
18126;DHT22;53956;52.442;13.284;2022-09-14T14:36:02;21.50;78.30
18126;DHT22;53956;52.442;13.284;2022-09-14T14:38:33;21.50;79.00
18126;DHT22;53956;52.442;13.284;2022-09-14T14:41:00;21.60;78.60
18126;DHT22;53956;52.442;13.284;2022-09-14T14:43:27;21.60;78.90
18126;DHT22;53956;52.442;13.284;2022-09-14T14:45:55;21.40;79.50
18126;DHT22;53956;52.442;13.284;2022-09-14T14:48:24;21.50;79.50
18126;DHT22;53956;52.442;13.284;2022-09-14T14:50:51;21.40;79.70
18126;DHT22;53956;52.442;13.284;2022-09-14T14:53:20;21.40;80.50
18126;DHT22;53956;52.442;13.284;2022-09-14T14:55:46;21.40;80.20
18126;DHT22;53956;52.442;13.284;2022-09-14T14:58:15;21.40;79.40
18126;DHT22;53956;52.442;13.284;2022-09-14T15:00:42;21.40;79.00
18126;DHT22;53956;52.442;13.284;2022-09-14T15:03:09;21.30;79.10
18126;DHT22;53956;52.442;13.284;2022-09-14T15:05:40;21.30;79.50
18126;DHT22;53956;52.442;13.284;2022-09-14T15:08:08;21.30;79.80
18126;DHT22;53956;52.442;13.284;2022-09-14T15:10:35;21.20;79.50
18126;DHT22;53956;52.442;13.284;2022-09-14T15:13:02;21.20;80.50
18126;DHT22;53956;52.442;13.284;2022-09-14T15:15:28;21.30;79.80
18126;DHT22;53956;52.442;13.284;2022-09-14T15:17:55;21.20;80.00
18126;DHT22;53956;52.442;13.284;2022-09-14T15:20:22;21.10;80.00
18126;DHT22;53956;52.442;13.284;2022-09-14T15:22:50;21.10;80.10
18126;DHT22;53956;52.442;13.284;2022-09-14T15:25:19;21.10;80.40
18126;DHT22;53956;52.442;13.284;2022-09-14T15:27:46;21.10;80.90
18126;DHT22;53956;52.442;13.284;2022-09-14T15:30:14;21.10;81.80
18126;DHT22;53956;52.442;13.284;2022-09-14T15:32:40;21.10;82.00
18126;DHT22;53956;52.442;13.284;2022-09-14T15:35:10;21.10;82.20
18126;DHT22;53956;52.442;13.284;2022-09-14T15:37:37;21.10;82.10
18126;DHT22;53956;52.442;13.284;2022-09-14T15:40:06;21.00;83.00
18126;DHT22;53956;52.442;13.284;2022-09-14T15:42:33;21.10;83.30
18126;DHT22;53956;52.442;13.284;2022-09-14T15:44:59;21.10;82.50
18126;DHT22;53956;52.442;13.284;2022-09-14T15:47:26;21.10;82.10